LEVX/VGO METAR and TAF weather

Enter ICAO airport designator
Station Type Date Time Source
LEVX METAR 2019/05/26 01:00 UTC NOAA

LEVX 260100Z 02008KT 350V060 CAVOK 13/11 Q1023 NOSIG


Station Type Date Time Source
LEVX Decoded METAR 2019/05/26 01:00 UTC NOAA

Vigo / Peinador, Spain (LEVX) 42-13N 008-38W 255M
May 25, 2019 - 09:00 PM EDT / 2019.05.26 0100 UTC
Wind: from the NNE (020 degrees) at 9 MPH (8 KT) (direction variable):0
Visibility: greater than 7 mile(s):0
Temperature: 55 F (13 C)
Dew Point: 51 F (11 C)
Relative Humidity: 87%
Pressure (altimeter): 30.21 in. Hg (1023 hPa)
ob: LEVX 260100Z 02008KT 350V060 CAVOK 13/11 Q1023 NOSIG
cycle: 1

Station Type Date Time Source
LEVX TAF 2019/05/25 18:27 UTC NOAA

TAF LEVX 251700Z 2518/2618 01009KT CAVOK TX24/2614Z TN11/2606Z PROB30
TEMPO 2518/2520 35015G25KT

Example: see airport list